Time;durP1;ratioP1;P1;durP2;ratioP2;P2;SDS_P1;SDS_P2;PMS_P1;PMS_P2;Temp;Humidity;BMP_temperature;BMP_pressure;BME280_temperature;BME280_humidity;BME280_pressure;Samples;Min_cycle;Max_cycle;Signal;HPM_P1;HPM_P2
2024/01/12 00:01:09;;;;;;;28.10;15.70;;;;;;;3.78;58.49;103339.13;5132841;27;20047;-70
2024/01/12 00:03:37;;;;;;;29.70;16.05;;;;;;;3.78;58.80;103336.47;5077840;27;20141;-70
2024/01/12 00:06:06;;;;;;;34.00;16.30;;;;;;;3.77;58.89;103332.13;5033129;28;20105;-70
2024/01/12 00:08:34;;;;;;;29.70;16.83;;;;;;;3.79;59.51;103340.00;5033691;28;20066;-70
2024/01/12 00:11:01;;;;;;;29.77;16.42;;;;;;;3.79;59.02;103334.66;5069909;27;20043;-70
2024/01/12 00:13:31;;;;;;;32.40;16.83;;;;;;;3.79;58.88;103332.00;5038898;27;20520;-70
2024/01/12 00:15:58;;;;;;;30.27;16.80;;;;;;;3.78;58.98;103328.50;5039723;28;20118;-69
2024/01/12 00:18:26;;;;;;;29.90;16.55;;;;;;;3.78;58.91;103325.84;5023574;28;20102;-70
2024/01/12 00:20:54;;;;;;;30.02;16.20;;;;;;;3.79;58.72;103334.66;5044642;28;20047;-69
2024/01/12 00:23:22;;;;;;;26.88;15.45;;;;;;;3.79;59.17;103340.84;5035648;28;20096;-70
2024/01/12 00:25:50;;;;;;;27.10;14.98;;;;;;;3.80;58.68;103341.69;5056162;28;20185;-70
2024/01/12 00:28:18;;;;;;;28.00;15.57;;;;;;;3.78;59.67;103336.47;5053959;28;20097;-70
2024/01/12 00:30:47;;;;;;;29.92;15.25;;;;;;;3.79;59.28;103338.19;5028622;28;20053;-70
2024/01/12 00:33:15;;;;;;;25.17;14.75;;;;;;;3.78;58.69;103344.47;5033511;28;20128;-70
2024/01/12 00:35:43;;;;;;;26.38;15.38;;;;;;;3.77;59.57;103344.56;5035212;28;20495;-70
2024/01/12 00:38:11;;;;;;;30.70;16.08;;;;;;;3.77;58.70;103334.78;5032949;28;20087;-70
2024/01/12 00:40:39;;;;;;;32.40;16.65;;;;;;;3.79;59.25;103329.34;5021688;28;20060;-70
2024/01/12 00:43:07;;;;;;;28.25;15.27;;;;;;;3.78;58.80;103327.66;5037472;28;20055;-70
2024/01/12 00:45:35;;;;;;;25.27;13.85;;;;;;;3.77;59.19;103328.63;5043548;28;20046;-70
2024/01/12 00:48:06;;;;;;;28.70;15.40;;;;;;;3.76;59.61;103333.09;5029382;28;20114;-69
2024/01/12 00:50:34;;;;;;;29.10;15.85;;;;;;;3.78;58.91;103339.13;5045440;28;20049;-70
2024/01/12 00:53:02;;;;;;;27.98;15.45;;;;;;;3.77;59.14;103333.94;5049253;28;20049;-69
2024/01/12 00:55:30;;;;;;;32.45;16.05;;;;;;;3.76;58.83;103340.22;5047317;28;20050;-70
2024/01/12 00:57:58;;;;;;;27.15;15.13;;;;;;;3.78;59.63;103356.91;5053670;28;20070;-70
2024/01/12 01:00:26;;;;;;;29.15;15.25;;;;;;;3.78;58.98;103352.44;5043967;28;20105;-70
2024/01/12 01:02:53;;;;;;;25.95;15.35;;;;;;;3.78;59.02;103348.94;5079263;27;20110;-70
2024/01/12 01:05:23;;;;;;;28.35;15.27;;;;;;;3.78;59.77;103352.44;5154401;27;20080;-70
2024/01/12 01:07:51;;;;;;;27.33;15.63;;;;;;;3.78;59.34;103341.81;5149567;27;20050;-70
2024/01/12 01:10:19;;;;;;;27.50;14.35;;;;;;;3.75;58.97;103342.03;5153451;27;20043;-70
2024/01/12 01:12:47;;;;;;;25.65;14.38;;;;;;;3.75;59.79;103344.69;5148723;27;20050;-70
2024/01/12 01:15:15;;;;;;;29.67;15.43;;;;;;;3.77;59.48;103348.09;5154051;27;20082;-70
2024/01/12 01:17:43;;;;;;;25.92;15.27;;;;;;;3.77;59.88;103347.25;5151761;27;20043;-70
2024/01/12 01:20:12;;;;;;;28.67;15.98;;;;;;;3.76;59.72;103349.03;5163609;27;20130;-70
2024/01/12 01:22:41;;;;;;;29.40;15.38;;;;;;;3.77;59.45;103345.44;5157311;27;20047;-70
2024/01/12 01:25:10;;;;;;;27.65;15.75;;;;;;;3.74;59.10;103350.13;5143379;27;20048;-70
2024/01/12 01:27:38;;;;;;;26.85;15.43;;;;;;;3.77;59.03;103349.91;5141491;27;20047;-70
2024/01/12 01:30:07;;;;;;;28.77;15.15;;;;;;;3.75;59.29;103360.66;5126905;28;20065;-70
2024/01/12 01:32:35;;;;;;;28.20;15.77;;;;;;;3.74;59.30;103353.63;5130596;27;20063;-70
2024/01/12 01:35:03;;;;;;;29.90;15.60;;;;;;;3.75;59.51;103363.31;5155064;27;20138;-70
2024/01/12 01:37:31;;;;;;;25.67;14.27;;;;;;;3.76;60.06;103372.13;5145385;27;20480;-70
2024/01/12 01:40:02;;;;;;;28.55;16.30;;;;;;;3.74;59.70;103364.28;5149915;27;20065;-70
2024/01/12 01:42:30;;;;;;;28.50;14.63;;;;;;;3.75;60.06;103379.25;5142935;27;20069;-69
2024/01/12 01:44:57;;;;;;;28.50;15.95;;;;;;;3.76;60.09;103378.31;5140711;27;20110;-70
2024/01/12 01:47:26;;;;;;;27.67;15.15;;;;;;;3.77;59.41;103377.34;5144740;27;20061;-70
2024/01/12 01:49:55;;;;;;;25.40;14.20;;;;;;;3.77;59.91;103381.81;5144488;27;20489;-70
2024/01/12 01:52:26;;;;;;;29.10;15.15;;;;;;;3.75;59.93;103395.22;5150598;27;20061;-70
2024/01/12 01:54:57;;;;;;;28.20;15.32;;;;;;;3.77;60.20;103389.78;5141090;27;20064;-70
2024/01/12 01:57:27;;;;;;;29.58;15.65;;;;;;;3.75;59.44;103384.59;5151968;27;20055;-70
2024/01/12 01:59:56;;;;;;;29.25;14.75;;;;;;;3.74;60.11;103380.22;5143917;27;20075;-69
2024/01/12 02:02:25;;;;;;;27.13;15.65;;;;;;;3.75;59.39;103378.41;5153388;27;20050;-70
2024/01/12 02:04:54;;;;;;;31.67;16.20;;;;;;;3.74;59.34;103374.06;5149241;27;20047;-70
2024/01/12 02:07:22;;;;;;;26.02;14.82;;;;;;;3.74;59.66;103374.06;5154274;27;20161;-70
2024/01/12 02:09:50;;;;;;;28.80;15.77;;;;;;;3.75;59.88;103370.44;5145014;27;20525;-70
2024/01/12 02:12:18;;;;;;;31.05;15.90;;;;;;;3.75;59.79;103365.97;5157310;27;20071;-70
2024/01/12 02:14:47;;;;;;;30.00;15.73;;;;;;;3.76;60.07;103366.81;5156082;27;20042;-70
2024/01/12 02:17:15;;;;;;;25.27;14.55;;;;;;;3.76;59.37;103358.84;5147190;27;20059;-69
2024/01/12 02:19:43;;;;;;;25.77;14.85;;;;;;;3.75;59.48;103357.13;5151421;27;20039;-70
2024/01/12 02:22:13;;;;;;;29.10;15.63;;;;;;;3.74;59.62;103350.97;5140992;27;20062;-70
2024/01/12 02:24:40;;;;;;;27.63;15.45;;;;;;;3.76;60.05;103353.53;5154877;27;20074;-69
2024/01/12 02:27:08;;;;;;;29.23;14.77;;;;;;;3.75;59.42;103355.34;5156690;27;20115;-70
2024/01/12 02:29:36;;;;;;;26.15;14.50;;;;;;;3.74;59.60;103347.47;5159584;27;20042;-70
2024/01/12 02:32:04;;;;;;;29.08;14.95;;;;;;;3.74;59.67;103345.66;5148918;27;20043;-70
2024/01/12 02:34:32;;;;;;;26.58;15.18;;;;;;;3.74;60.29;103352.78;5148600;27;20055;-70
2024/01/12 02:37:00;;;;;;;30.70;16.17;;;;;;;3.73;59.94;103349.28;5151722;27;20084;-70
2024/01/12 02:39:29;;;;;;;27.98;16.50;;;;;;;3.74;60.38;103355.44;5153061;27;20057;-70
2024/01/12 02:41:57;;;;;;;27.23;15.02;;;;;;;3.74;59.51;103356.28;5145374;27;20116;-69
2024/01/12 02:44:25;;;;;;;30.80;16.40;;;;;;;3.75;60.02;103359.81;5154825;27;20141;-70
2024/01/12 02:46:53;;;;;;;32.55;16.42;;;;;;;3.74;59.67;103363.44;5150986;27;20137;-70
2024/01/12 02:49:21;;;;;;;29.25;16.50;;;;;;;3.74;59.81;103360.75;5148016;27;20043;-70
2024/01/12 02:51:49;;;;;;;28.27;16.38;;;;;;;3.75;59.91;103359.81;5151660;27;20046;-69
2024/01/12 02:54:16;;;;;;;28.90;15.82;;;;;;;3.72;60.01;103350.25;5155508;27;20077;-70
2024/01/12 02:56:46;;;;;;;28.13;16.23;;;;;;;3.71;59.80;103345.88;5150799;27;20051;-70
2024/01/12 02:59:14;;;;;;;27.63;15.50;;;;;;;3.73;59.74;103343.97;5149315;27;20057;-70
2024/01/12 03:01:41;;;;;;;29.98;15.90;;;;;;;3.76;59.83;103342.88;5153829;27;20046;-70
2024/01/12 03:04:09;;;;;;;28.35;15.70;;;;;;;3.76;60.25;103341.06;5155807;27;20388;-70
2024/01/12 03:06:37;;;;;;;28.60;15.55;;;;;;;3.77;59.98;103339.25;5144206;27;20075;-70
2024/01/12 03:09:05;;;;;;;29.00;15.35;;;;;;;3.76;59.58;103337.56;5154022;27;20066;-70
2024/01/12 03:11:33;;;;;;;26.75;14.48;;;;;;;3.76;59.77;103332.25;5145461;27;20084;-70
2024/01/12 03:14:02;;;;;;;26.13;14.55;;;;;;;3.77;60.02;103336.59;5156970;27;20112;-70
2024/01/12 03:16:30;;;;;;;26.58;14.38;;;;;;;3.75;60.42;103331.41;5152988;27;20051;-70
2024/01/12 03:18:58;;;;;;;26.83;15.25;;;;;;;3.75;59.72;103331.41;5155256;27;20069;-70
2024/01/12 03:21:26;;;;;;;30.10;15.40;;;;;;;3.77;59.78;103344.56;5146587;27;20047;-70
2024/01/12 03:23:53;;;;;;;28.05;15.77;;;;;;;3.77;60.59;103344.56;5137166;27;20047;-70
2024/01/12 03:26:21;;;;;;;31.40;16.90;;;;;;;3.76;59.81;103330.44;5144427;27;20047;-70
2024/01/12 03:28:49;;;;;;;26.88;15.18;;;;;;;3.76;59.82;103332.25;5139156;27;20039;-70
2024/01/12 03:31:21;;;;;;;28.35;16.17;;;;;;;3.76;60.66;103329.59;5139728;27;20043;-70
2024/01/12 03:33:49;;;;;;;28.00;14.85;;;;;;;3.76;59.96;103327.78;5134685;27;20347;-70
2024/01/12 03:36:17;;;;;;;28.75;15.13;;;;;;;3.75;60.12;103328.75;5142270;27;20062;-70
2024/01/12 03:38:45;;;;;;;29.52;16.13;;;;;;;3.77;60.55;103326.81;5136599;27;20056;-70
2024/01/12 03:41:13;;;;;;;27.48;17.75;;;;;;;3.76;59.86;103330.44;5140431;27;20044;-70
2024/01/12 03:43:41;;;;;;;30.55;16.55;;;;;;;3.78;59.62;103333.81;5131847;27;20047;-70
2024/01/12 03:46:09;;;;;;;30.63;16.63;;;;;;;3.76;59.95;103329.59;5133019;27;20104;-70
2024/01/12 03:48:39;;;;;;;26.33;15.38;;;;;;;3.75;60.07;103323.41;5128535;27;20043;-70
2024/01/12 03:51:07;;;;;;;29.10;15.60;;;;;;;3.78;60.60;103327.66;5141002;27;20043;-70
2024/01/12 03:53:35;;;;;;;26.42;15.13;;;;;;;3.78;59.81;103322.34;5138265;27;20055;-70
2024/01/12 03:56:04;;;;;;;28.58;15.77;;;;;;;3.78;59.77;103319.69;5138948;27;20039;-70
2024/01/12 03:58:31;;;;;;;28.02;15.10;;;;;;;3.78;60.08;103312.53;5138215;27;20051;-70
2024/01/12 04:00:59;;;;;;;29.35;16.73;;;;;;;3.74;60.66;103310.22;5139798;27;20039;-70
2024/01/12 04:03:27;;;;;;;29.35;16.50;;;;;;;3.77;60.32;103317.97;5129630;27;20059;-70
2024/01/12 04:05:56;;;;;;;30.83;15.75;;;;;;;3.76;60.78;103319.78;5144640;27;20077;-70
2024/01/12 04:08:24;;;;;;;28.73;16.08;;;;;;;3.78;60.49;103317.00;5138460;27;20043;-70
2024/01/12 04:10:52;;;;;;;30.63;15.98;;;;;;;3.78;60.56;103307.22;5138426;27;20115;-70
2024/01/12 04:13:20;;;;;;;28.00;15.68;;;;;;;3.79;60.46;103310.72;5138372;27;20124;-72
2024/01/12 04:15:48;;;;;;;28.55;16.42;;;;;;;3.78;60.61;103311.69;5136307;27;20046;-70
2024/01/12 04:18:15;;;;;;;28.83;15.63;;;;;;;3.77;60.69;103307.34;5138650;27;20047;-70
2024/01/12 04:20:43;;;;;;;30.08;16.02;;;;;;;3.76;60.41;103303.84;5138823;27;20143;-70
2024/01/12 04:23:13;;;;;;;29.48;14.48;;;;;;;3.77;60.83;103307.34;5138126;27;20816;-70
2024/01/12 04:25:41;;;;;;;30.58;16.48;;;;;;;3.76;60.51;103313.63;5132477;27;20067;-70
2024/01/12 04:28:08;;;;;;;27.70;16.17;;;;;;;3.78;60.21;103317.88;5138409;27;20050;-70
2024/01/12 04:30:36;;;;;;;27.95;15.55;;;;;;;3.77;60.92;103310.00;5140144;27;20040;-71
2024/01/12 04:33:04;;;;;;;30.17;17.52;;;;;;;3.76;60.26;103306.50;5134930;27;20051;-70
2024/01/12 04:35:32;;;;;;;27.05;15.02;;;;;;;3.77;60.66;103310.00;5136322;27;20061;-70
2024/01/12 04:38:00;;;;;;;28.52;16.17;;;;;;;3.76;60.47;103317.13;5146792;27;20088;-70
2024/01/12 04:40:29;;;;;;;24.60;15.10;;;;;;;3.77;60.84;103316.16;5143346;27;20049;-70
2024/01/12 04:42:57;;;;;;;30.17;17.00;;;;;;;3.78;61.12;103315.19;5135039;27;20051;-70
2024/01/12 04:45:25;;;;;;;27.48;15.95;;;;;;;3.79;60.46;103319.56;5129457;27;20063;-72
2024/01/12 04:47:53;;;;;;;28.58;16.90;;;;;;;3.79;61.15;103310.72;5129940;27;20073;-70
2024/01/12 04:50:21;;;;;;;31.30;16.60;;;;;;;3.76;60.97;103317.13;5136105;27;20073;-70
2024/01/12 04:52:50;;;;;;;29.50;15.60;;;;;;;3.76;61.09;103314.47;5131881;27;20047;-70
2024/01/12 04:55:18;;;;;;;29.25;16.35;;;;;;;3.76;60.62;103321.59;5139267;27;20047;-70
2024/01/12 04:57:47;;;;;;;29.55;15.25;;;;;;;3.73;60.65;103328.00;5136306;27;20047;-70
2024/01/12 05:00:16;;;;;;;27.50;16.38;;;;;;;3.75;60.49;103319.91;5142234;27;20051;-70
2024/01/12 05:02:44;;;;;;;26.95;16.92;;;;;;;3.75;60.73;103323.41;5136699;27;20043;-70
2024/01/12 05:05:12;;;;;;;34.85;18.35;;;;;;;3.74;61.34;103320.88;5142427;27;20062;-70
2024/01/12 05:07:40;;;;;;;31.50;17.08;;;;;;;3.72;60.83;103317.47;5142726;27;20043;-70
2024/01/12 05:10:08;;;;;;;36.25;18.08;;;;;;;3.73;61.34;103313.84;5144593;27;20130;-70
2024/01/12 05:12:36;;;;;;;29.17;18.23;;;;;;;3.72;61.68;103313.00;5125442;27;20052;-70
2024/01/12 05:15:07;;;;;;;34.45;17.85;;;;;;;3.74;61.56;103312.91;5136160;27;20047;-70
2024/01/12 05:17:35;;;;;;;28.42;16.10;;;;;;;3.72;61.48;103313.00;5136298;27;20054;-70
2024/01/12 05:20:06;;;;;;;32.15;15.93;;;;;;;3.73;61.13;103304.06;5149466;27;20047;-70
2024/01/12 05:22:36;;;;;;;30.38;17.20;;;;;;;3.72;61.30;103302.38;5145085;27;20043;-70
2024/01/12 05:25:04;;;;;;;32.33;18.30;;;;;;;3.72;60.81;103288.22;5147254;27;20043;-70
2024/01/12 05:27:32;;;;;;;29.55;16.25;;;;;;;3.67;61.67;103283.25;5151299;27;20046;-70
2024/01/12 05:30:01;;;;;;;27.85;15.85;;;;;;;3.71;61.19;103303.34;5146958;27;20055;-69
2024/01/12 05:32:32;;;;;;;32.38;17.98;;;;;;;3.72;61.25;103301.53;5147491;27;20364;-70
2024/01/12 05:35:00;;;;;;;28.13;15.95;;;;;;;3.71;61.36;103299.84;5159078;27;20114;-71
2024/01/12 05:37:29;;;;;;;29.45;16.85;;;;;;;3.72;61.60;103301.53;5148226;27;20055;-71
2024/01/12 05:39:56;;;;;;;26.63;16.02;;;;;;;3.72;61.79;103304.19;5162472;27;20042;-70
2024/01/12 05:42:24;;;;;;;29.23;17.20;;;;;;;3.72;61.04;103304.19;5150160;27;20051;-70
2024/01/12 05:44:52;;;;;;;29.63;16.27;;;;;;;3.71;60.92;103295.34;5153659;27;20073;-70
2024/01/12 05:47:20;;;;;;;31.75;16.92;;;;;;;3.72;61.81;103297.06;5146260;27;20050;-70
2024/01/12 05:49:49;;;;;;;31.85;16.75;;;;;;;3.72;61.28;103297.06;5146600;27;20043;-71
2024/01/12 05:52:17;;;;;;;33.53;16.45;;;;;;;3.71;61.26;103308.66;5155574;27;20051;-70
2024/01/12 05:54:45;;;;;;;30.58;16.50;;;;;;;3.71;60.91;103303.34;5158956;27;20050;-70
2024/01/12 05:57:13;;;;;;;29.08;17.10;;;;;;;3.72;61.34;103312.16;5146828;27;20046;-70
2024/01/12 05:59:41;;;;;;;30.90;16.90;;;;;;;3.71;60.91;103310.47;5153087;27;20043;-70
2024/01/12 06:02:13;;;;;;;30.15;16.55;;;;;;;3.75;61.50;103315.44;5140283;27;20043;-70
2024/01/12 06:04:41;;;;;;;31.63;17.67;;;;;;;3.87;60.63;103311.00;5155011;27;20099;-70
2024/01/12 06:07:10;;;;;;;31.15;16.52;;;;;;;4.02;60.21;103311.63;5153364;27;20056;-71
2024/01/12 06:09:38;;;;;;;27.27;16.08;;;;;;;4.21;60.16;103319.88;5156136;27;20473;-69
2024/01/12 06:12:07;;;;;;;25.70;15.07;;;;;;;4.31;60.09;103323.53;5155080;27;20043;-69
2024/01/12 06:14:35;;;;;;;30.67;16.92;;;;;;;4.34;59.89;103325.94;5152018;27;20046;-68
2024/01/12 06:17:03;;;;;;;29.02;15.82;;;;;;;4.34;59.72;103325.09;5140782;27;20047;-68
2024/01/12 06:19:31;;;;;;;30.20;15.52;;;;;;;4.31;59.67;103320.00;5139931;27;20042;-68
2024/01/12 06:21:59;;;;;;;29.42;15.18;;;;;;;4.28;60.21;103317.59;5157696;27;20090;-70
2024/01/12 06:24:28;;;;;;;27.88;16.05;;;;;;;4.28;59.49;103326.41;5152028;27;20478;-70
2024/01/12 06:26:56;;;;;;;27.95;14.90;;;;;;;4.41;59.88;103318.31;5147354;27;20071;-71
2024/01/12 06:29:24;;;;;;;30.45;15.18;;;;;;;4.56;59.13;103331.28;5155392;27;20061;-74
2024/01/12 06:31:52;;;;;;;26.25;14.52;;;;;;;4.74;57.97;103330.78;5145769;27;20079;-74
2024/01/12 06:34:20;;;;;;;26.77;14.23;;;;;;;4.88;58.01;103330.53;5142113;27;20051;-69
2024/01/12 06:36:48;;;;;;;28.40;15.38;;;;;;;5.05;57.38;103331.81;5143483;27;20054;-70
2024/01/12 06:39:16;;;;;;;26.40;13.82;;;;;;;5.17;56.85;103330.81;4788739;27;9999804;-70
2024/01/12 06:41:46;;;;;;;25.35;13.98;;;;;;;5.19;57.09;103336.88;5133686;27;20047;-70
2024/01/12 06:44:14;;;;;;;23.35;12.38;;;;;;;5.09;57.23;103322.59;5151059;27;20046;-72
2024/01/12 06:46:43;;;;;;;26.15;11.45;;;;;;;5.00;57.79;103334.84;5139033;27;20049;-70
2024/01/12 06:49:12;;;;;;;22.35;11.90;;;;;;;4.84;57.97;103334.41;5143791;27;20069;-72
2024/01/12 06:51:40;;;;;;;19.42;11.15;;;;;;;4.73;59.09;103339.75;5141260;27;20142;-68
2024/01/12 06:54:08;;;;;;;20.95;10.70;;;;;;;4.53;58.91;103323.53;5141637;27;20142;-75
2024/01/12 06:56:37;;;;;;;19.67;10.35;;;;;;;4.54;58.99;103346.53;5142172;27;20047;-70
2024/01/12 06:59:07;;;;;;;26.80;11.93;;;;;;;4.46;59.33;103348.94;5137456;27;20133;-71
2024/01/12 07:01:35;;;;;;;24.27;10.68;;;;;;;4.39;59.75;103354.88;5136893;27;20043;-68
2024/01/12 07:04:02;;;;;;;29.85;10.63;;;;;;;4.35;59.46;103348.94;5137148;27;20065;-70
2024/01/12 07:06:30;;;;;;;24.42;10.43;;;;;;;4.31;59.75;103355.47;5139989;27;20078;-68
2024/01/12 07:08:58;;;;;;;25.95;10.77;;;;;;;4.29;59.87;103353.88;5154448;27;20115;-65
2024/01/12 07:11:26;;;;;;;24.13;10.02;;;;;;;4.25;60.28;103345.28;5144451;27;20043;-68
2024/01/12 07:13:55;;;;;;;23.13;10.43;;;;;;;4.24;60.13;103336.47;5140833;27;20081;-68
2024/01/12 07:16:24;;;;;;;19.40;9.75;;;;;;;4.21;60.04;103339.38;5145740;27;20055;-68
2024/01/12 07:18:52;;;;;;;23.38;10.27;;;;;;;4.18;60.31;103338.75;5133403;27;20051;-70
2024/01/12 07:21:20;;;;;;;23.27;9.98;;;;;;;4.17;60.52;103347.69;5131414;27;20055;-68
2024/01/12 07:23:48;;;;;;;22.52;9.32;;;;;;;4.14;60.97;103343.47;5125606;28;20051;-69
2024/01/12 07:26:15;;;;;;;21.05;9.38;;;;;;;4.12;60.50;103329.44;5125056;27;20047;-68
2024/01/12 07:28:43;;;;;;;25.15;9.25;;;;;;;4.08;60.95;103327.97;5130364;27;20070;-69
2024/01/12 07:31:11;;;;;;;16.15;8.02;;;;;;;4.09;61.30;103336.81;5132619;27;20051;-70
2024/01/12 07:33:41;;;;;;;20.00;8.30;;;;;;;4.06;60.91;103327.25;5143378;27;20142;-70
2024/01/12 07:36:09;;;;;;;18.80;8.98;;;;;;;4.06;60.61;103327.25;5158373;27;20073;-65
2024/01/12 07:38:37;;;;;;;16.02;8.95;;;;;;;4.05;60.74;103336.19;5140199;27;20047;-68
2024/01/12 07:41:05;;;;;;;29.23;8.85;;;;;;;4.06;60.68;103342.34;5158944;27;20043;-72
2024/01/12 07:43:33;;;;;;;19.10;7.45;;;;;;;4.03;60.50;103331.94;5146028;27;20541;-71
2024/01/12 07:46:01;;;;;;;22.38;8.70;;;;;;;4.03;60.49;103334.59;5152566;27;20042;-73
2024/01/12 07:48:29;;;;;;;17.65;7.78;;;;;;;4.06;61.44;103329.91;5158043;27;20054;-73
2024/01/12 07:50:58;;;;;;;27.23;8.23;;;;;;;4.11;60.25;103334.88;5138572;27;20054;-71
2024/01/12 07:53:26;;;;;;;16.40;8.02;;;;;;;4.12;61.05;103332.09;5155463;27;20216;-71
2024/01/12 07:55:54;;;;;;;20.45;8.27;;;;;;;4.04;60.41;103323.00;5152997;27;20043;-70
2024/01/12 07:58:22;;;;;;;17.48;7.40;;;;;;;4.10;60.12;103325.19;5154379;27;20059;-70
2024/01/12 08:00:49;;;;;;;24.65;7.97;;;;;;;4.10;60.85;103327.84;5146777;27;20068;-70
2024/01/12 08:03:17;;;;;;;14.75;8.20;;;;;;;4.13;60.23;103319.63;5140630;27;20047;-72
2024/01/12 08:05:45;;;;;;;19.85;7.97;;;;;;;4.01;60.79;103300.13;5041049;28;20049;-67
2024/01/12 08:08:16;;;;;;;17.95;6.93;;;;;;;4.11;60.49;103317.09;5036624;28;20089;-71
2024/01/12 08:10:46;;;;;;;18.73;7.45;;;;;;;4.12;59.84;103324.09;5039684;27;20132;-71
2024/01/12 08:13:14;;;;;;;17.88;8.13;;;;;;;4.12;59.93;103316.13;5045202;28;20071;-71
2024/01/12 08:15:44;;;;;;;23.15;6.80;;;;;;;4.11;60.24;103325.06;5043296;28;20162;-70
2024/01/12 08:18:12;;;;;;;20.58;7.60;;;;;;;4.13;60.33;103328.47;5066042;27;20087;-71
2024/01/12 08:20:40;;;;;;;15.80;7.10;;;;;;;4.13;60.70;103324.94;5054807;28;20074;-71
2024/01/12 08:23:08;;;;;;;16.20;6.95;;;;;;;4.10;60.52;103318.06;5061402;27;20063;-71
2024/01/12 08:25:38;;;;;;;13.32;6.25;;;;;;;4.10;60.39;103327.84;5056517;27;20046;-71
2024/01/12 08:28:07;;;;;;;16.45;6.93;;;;;;;4.11;60.77;103311.78;5055667;27;20231;-71
2024/01/12 08:30:35;;;;;;;19.98;7.25;;;;;;;4.12;60.38;103329.44;5040157;28;20118;-70
2024/01/12 08:33:02;;;;;;;17.45;7.43;;;;;;;4.10;60.68;103331.34;5045072;28;20048;-70
2024/01/12 08:35:30;;;;;;;17.15;7.60;;;;;;;4.09;60.03;103336.81;5057295;28;20093;-70
2024/01/12 08:37:58;;;;;;;17.60;6.85;;;;;;;4.11;60.71;103334.88;5043283;28;20048;-70
2024/01/12 08:40:26;;;;;;;14.77;6.07;;;;;;;4.08;60.54;103327.13;5045815;28;20070;-70
2024/01/12 08:42:57;;;;;;;16.48;6.60;;;;;;;4.07;60.34;103334.25;5050174;28;20112;-69
2024/01/12 08:45:25;;;;;;;15.60;6.68;;;;;;;4.07;60.54;103336.06;5050848;28;20049;-70
2024/01/12 08:47:52;;;;;;;22.33;6.97;;;;;;;4.11;60.77;103342.84;5054422;28;20064;-70
2024/01/12 08:50:20;;;;;;;19.58;7.68;;;;;;;4.27;60.54;103339.84;5048760;28;20067;-68
2024/01/12 08:52:48;;;;;;;19.88;6.72;;;;;;;4.44;59.74;103342.03;5061593;28;20037;-70
2024/01/12 08:55:16;;;;;;;20.10;7.15;;;;;;;4.61;59.04;103330.06;5046930;28;20515;-69
2024/01/12 08:57:44;;;;;;;15.38;6.55;;;;;;;4.84;58.61;103332.59;5046465;28;20049;-69
2024/01/12 09:00:16;;;;;;;17.23;6.30;;;;;;;4.98;58.22;103335.97;5041247;28;20065;-66
2024/01/12 09:02:44;;;;;;;18.63;6.55;;;;;;;5.00;58.11;103334.00;5035023;28;20049;-68
2024/01/12 09:05:13;;;;;;;18.63;6.45;;;;;;;4.97;58.25;103327.13;5130072;27;20051;-68
2024/01/12 09:07:41;;;;;;;15.95;6.88;;;;;;;4.89;58.38;103335.72;5147513;27;20075;-69
2024/01/12 09:10:09;;;;;;;14.30;6.53;;;;;;;4.83;58.79;103333.56;5147012;27;20047;-68
2024/01/12 09:12:37;;;;;;;13.75;5.80;;;;;;;4.77;58.82;103336.72;5143503;27;20044;-67
2024/01/12 09:15:07;;;;;;;19.52;7.45;;;;;;;4.72;58.62;103338.03;5141818;27;20043;-67
2024/01/12 09:17:37;;;;;;;17.13;6.63;;;;;;;4.66;58.83;103339.38;5143501;27;20138;-67
2024/01/12 09:20:06;;;;;;;16.98;6.55;;;;;;;4.63;59.01;103342.28;5143574;27;20100;-65
2024/01/12 09:22:34;;;;;;;14.57;5.68;;;;;;;4.57;59.79;103335.63;5154744;27;20042;-67
2024/01/12 09:25:02;;;;;;;18.40;6.95;;;;;;;4.54;59.33;103340.34;5153648;27;20084;-65
2024/01/12 09:27:30;;;;;;;18.52;7.72;;;;;;;4.47;59.71;103334.66;5151151;27;20476;-67
2024/01/12 09:29:58;;;;;;;16.90;6.40;;;;;;;4.53;59.59;103342.16;5151984;27;20108;-68
2024/01/12 09:32:26;;;;;;;14.85;7.15;;;;;;;4.64;59.98;103330.66;5151674;27;20044;-65
2024/01/12 09:34:55;;;;;;;13.50;6.47;;;;;;;4.67;59.62;103334.91;5148550;27;20043;-70
2024/01/12 09:37:23;;;;;;;21.27;6.78;;;;;;;4.65;59.74;103335.03;5149013;27;20043;-67
2024/01/12 09:39:51;;;;;;;13.88;6.43;;;;;;;4.63;59.58;103339.63;5152860;27;20050;-69
2024/01/12 09:42:25;;;;;;;17.60;6.40;;;;;;;4.72;60.06;103343.38;5143029;27;20048;-72
2024/01/12 09:44:53;;;;;;;19.55;7.35;;;;;;;4.87;59.41;103340.34;5156057;27;20045;-68
2024/01/12 09:47:33;;;;;;;20.27;5.80;;;;;;;5.06;58.43;103345.03;5148619;27;20050;-70
2024/01/12 09:50:05;;;;;;;14.43;6.10;;;;;;;5.16;58.79;103332.66;5147585;27;20114;-69
2024/01/12 09:52:33;;;;;;;18.08;6.45;;;;;;;5.36;58.19;103336.31;5145020;27;20043;-71
2024/01/12 09:55:01;;;;;;;13.93;5.75;;;;;;;5.51;57.34;103327.03;5152111;27;20050;-67
2024/01/12 09:57:29;;;;;;;17.45;6.68;;;;;;;5.62;57.67;103334.16;5153901;27;20054;-70
2024/01/12 09:59:59;;;;;;;16.80;6.53;;;;;;;5.77;56.56;103335.53;5143273;27;20043;-70
2024/01/12 10:02:27;;;;;;;17.27;7.43;;;;;;;5.85;56.60;103334.88;5140025;27;20067;-69
2024/01/12 10:04:55;;;;;;;20.92;7.13;;;;;;;5.75;57.41;103324.13;5078894;27;20054;-71
2024/01/12 10:07:25;;;;;;;24.70;7.13;;;;;;;5.92;56.69;103327.22;5043138;28;20429;-71
2024/01/12 10:09:53;;;;;;;16.38;6.97;;;;;;;6.01;56.12;103337.97;5047729;28;20058;-70
2024/01/12 10:12:21;;;;;;;15.27;5.82;;;;;;;6.05;55.58;103328.72;5034755;28;20050;-70
2024/01/12 10:14:59;;;;;;;17.40;6.78;;;;;;;6.14;55.31;103324.41;5041397;28;20045;-69
2024/01/12 10:17:28;;;;;;;19.08;7.43;;;;;;;6.18;55.48;103331.19;5034455;28;20050;-71
2024/01/12 10:19:56;;;;;;;15.88;7.05;;;;;;;6.22;55.46;103339.78;5042399;28;20168;-71
2024/01/12 10:22:26;;;;;;;15.75;5.90;;;;;;;6.20;55.06;103338.09;5049210;28;20117;-69
2024/01/12 10:24:57;;;;;;;14.18;5.95;;;;;;;6.22;55.41;103332.63;5039386;28;20046;-70
2024/01/12 10:27:26;;;;;;;17.20;6.55;;;;;;;6.20;55.14;103331.91;5035223;28;20049;-69
2024/01/12 10:29:54;;;;;;;13.85;6.68;;;;;;;6.25;55.43;103342.19;5035343;28;20050;-70
2024/01/12 10:32:22;;;;;;;13.98;6.63;;;;;;;6.25;54.83;103329.69;5043576;27;20057;-70
2024/01/12 10:34:52;;;;;;;18.80;6.70;;;;;;;6.28;54.90;103328.56;5040644;28;20081;-70
2024/01/12 10:37:21;;;;;;;22.40;6.88;;;;;;;6.26;54.95;103322.50;5042268;28;20050;-69
2024/01/12 10:39:51;;;;;;;16.65;7.00;;;;;;;6.29;55.33;103328.44;5047569;28;20738;-71
2024/01/12 10:42:20;;;;;;;12.45;5.68;;;;;;;6.34;54.73;103320.03;5041020;28;20048;-68
2024/01/12 10:44:52;;;;;;;12.32;6.30;;;;;;;6.36;55.16;103315.41;5049953;28;20093;-71
2024/01/12 10:47:22;;;;;;;12.05;5.20;;;;;;;6.39;54.81;103325.81;5045233;28;20136;-69
2024/01/12 10:49:51;;;;;;;15.32;6.15;;;;;;;6.40;54.82;103316.81;5050917;28;20113;-69
2024/01/12 10:52:32;;;;;;;12.05;5.60;;;;;;;6.42;54.78;103313.03;5039347;28;20060;-70
2024/01/12 10:55:05;;;;;;;18.17;6.75;;;;;;;6.47;54.57;103307.28;5039445;28;20090;-66
2024/01/12 10:57:33;;;;;;;14.98;5.80;;;;;;;6.43;54.53;103304.03;5044481;28;20078;-69
2024/01/12 11:00:01;;;;;;;14.68;6.47;;;;;;;6.44;54.72;103304.88;5047109;28;20453;-68
2024/01/12 11:02:32;;;;;;;15.35;5.15;;;;;;;6.47;54.51;103305.47;5046400;27;20060;-69
2024/01/12 11:05:01;;;;;;;19.58;6.80;;;;;;;6.50;54.68;103294.50;5113458;27;20066;-68
2024/01/12 11:07:29;;;;;;;19.40;8.73;;;;;;;6.46;55.27;103298.44;5137282;27;20058;-69
2024/01/12 11:09:59;;;;;;;18.70;8.05;;;;;;;6.51;55.57;103300.69;5140322;27;20550;-70
2024/01/12 11:12:33;;;;;;;17.75;7.85;;;;;;;6.52;54.86;103299.72;5138893;27;20050;-69
2024/01/12 11:15:02;;;;;;;19.95;7.75;;;;;;;6.50;55.04;103291.00;5133363;27;20346;-69
2024/01/12 11:17:32;;;;;;;16.00;6.88;;;;;;;6.55;54.73;103285.25;5141908;27;20209;-71
2024/01/12 11:20:06;;;;;;;17.90;7.18;;;;;;;6.55;55.13;103283.41;5133621;27;20466;-71
2024/01/12 11:22:35;;;;;;;17.17;6.40;;;;;;;6.59;54.47;103282.16;5141823;27;20047;-71
2024/01/12 11:25:03;;;;;;;10.95;6.45;;;;;;;6.60;54.68;103285.69;5142438;27;20043;-70